Time;durP1;ratioP1;P1;durP2;ratioP2;P2;SDS_P1;SDS_P2;PMS_P1;PMS_P2;Temp;Humidity;BMP_temperature;BMP_pressure;BME280_temperature;BME280_humidity;BME280_pressure;Samples;Min_cycle;Max_cycle;Signal;HPM_P1;HPM_P2
2022/04/02 00:01:29;;;;;;;3.83;1.75;;;;;;;0.13;80.62;101353.59;4962358;28;20074;-76
2022/04/02 00:03:55;;;;;;;7.35;2.20;;;;;;;0.12;80.94;101356.22;4951849;28;20442;-77
2022/04/02 00:06:20;;;;;;;7.60;2.05;;;;;;;0.01;81.89;101348.09;4964997;28;20035;-78
2022/04/02 00:08:46;;;;;;;3.85;2.17;;;;;;;0.08;81.88;101357.25;4960156;28;20046;-77
2022/04/02 00:11:12;;;;;;;4.65;2.05;;;;;;;0.14;81.24;101364.75;4936338;28;20039;-76
2022/04/02 00:13:38;;;;;;;5.15;2.30;;;;;;;0.03;81.62;101351.44;4960998;28;20071;-76
2022/04/02 00:16:05;;;;;;;3.65;1.75;;;;;;;-0.01;82.09;101361.06;4964092;28;20038;-77
2022/04/02 00:18:31;;;;;;;2.63;1.80;;;;;;;-0.03;82.47;101363.69;4946297;28;20046;-77
2022/04/02 00:20:58;;;;;;;4.35;2.00;;;;;;;0.04;82.31;101360.84;4976169;28;20034;-77
2022/04/02 00:23:36;;;;;;;4.43;2.03;;;;;;;-0.07;82.79;101349.25;4964192;28;20047;-76
2022/04/02 00:26:03;;;;;;;4.55;2.20;;;;;;;-0.11;83.29;101357.19;4948457;28;20061;-76
2022/04/02 00:28:29;;;;;;;7.70;2.10;;;;;;;-0.04;82.85;101354.28;4950929;28;20846;-76
2022/04/02 00:30:56;;;;;;;8.23;2.53;;;;;;;-0.02;83.03;101356.78;4934708;28;20041;-77
2022/04/02 00:33:22;;;;;;;8.07;2.40;;;;;;;-0.01;83.12;101359.31;4934764;28;20039;-76
2022/04/02 00:35:48;;;;;;;5.78;2.03;;;;;;;-0.08;82.92;101357.88;4938624;28;20038;-76
2022/04/02 00:38:14;;;;;;;3.22;1.80;;;;;;;-0.06;83.50;101353.53;4963812;28;20042;-76
2022/04/02 00:40:42;;;;;;;7.68;2.13;;;;;;;-0.18;83.79;101343.69;4951163;28;20049;-77
2022/04/02 00:43:32;;;;;;;4.93;2.10;;;;;;;-0.13;84.60;101361.53;4931336;28;20102;-76
2022/04/02 00:46:00;;;;;;;5.82;2.20;;;;;;;-0.20;84.63;101355.81;4966584;28;20492;-77
2022/04/02 00:48:27;;;;;;;7.75;2.10;;;;;;;-0.19;84.75;101352.31;4951143;28;20122;-76
2022/04/02 00:50:58;;;;;;;6.13;2.40;;;;;;;-0.06;84.69;101370.72;4964696;28;20038;-76
2022/04/02 00:53:28;;;;;;;6.82;2.22;;;;;;;-0.15;84.63;101358.19;4964136;28;20391;-77
2022/04/02 00:55:54;;;;;;;8.10;2.50;;;;;;;-0.11;84.45;101370.09;4937107;28;20073;-78
2022/04/02 00:58:20;;;;;;;8.55;2.45;;;;;;;-0.10;84.75;101366.59;4964202;28;20729;-77
2022/04/02 01:00:47;;;;;;;6.90;2.47;;;;;;;-0.11;84.49;101367.50;4948580;28;20045;-77
2022/04/02 01:03:16;;;;;;;3.47;1.92;;;;;;;-0.20;85.21;101366.13;4934783;28;20073;-76
2022/04/02 01:05:47;;;;;;;6.73;2.10;;;;;;;-0.20;85.36;101366.13;4962938;28;20074;-77
2022/04/02 01:08:13;;;;;;;5.78;2.45;;;;;;;-0.21;86.33;101372.16;4938195;28;20041;-77
2022/04/02 01:10:39;;;;;;;4.40;2.10;;;;;;;-0.22;87.42;101365.34;4965187;28;20041;-77
2022/04/02 01:13:07;;;;;;;2.80;2.05;;;;;;;-0.17;87.08;101367.72;4962556;28;20034;-77
2022/04/02 01:15:33;;;;;;;4.75;2.22;;;;;;;-0.19;87.58;101365.22;4949660;28;20062;-75
2022/04/02 01:18:01;;;;;;;4.85;2.28;;;;;;;-0.18;88.01;101373.81;4962035;28;20030;-76
2022/04/02 01:20:33;;;;;;;5.63;2.20;;;;;;;-0.36;88.38;101355.56;4944750;28;20109;-75
2022/04/02 01:23:01;;;;;;;6.68;2.88;;;;;;;-0.32;88.44;101353.72;4949162;28;20046;-76
2022/04/02 01:25:33;;;;;;;6.15;2.28;;;;;;;-0.30;88.74;101368.25;4930099;28;20045;-76
2022/04/02 01:28:04;;;;;;;7.82;2.42;;;;;;;-0.31;89.11;101370.88;4948265;28;20066;-76
2022/04/02 01:30:32;;;;;;;4.00;2.20;;;;;;;-0.28;89.85;101370.75;4966443;28;20038;-75
2022/04/02 01:32:59;;;;;;;5.25;2.10;;;;;;;-0.30;90.27;101363.09;4942515;28;20059;-75
2022/04/02 01:35:25;;;;;;;8.13;2.63;;;;;;;-0.23;90.38;101368.81;4949506;28;20035;-76
2022/04/02 01:38:04;;;;;;;7.25;2.33;;;;;;;-0.16;90.50;101375.41;4954659;28;20037;-75
2022/04/02 01:40:31;;;;;;;7.63;2.42;;;;;;;-0.14;91.72;101375.34;4965705;28;20042;-76
2022/04/02 01:42:56;;;;;;;3.67;2.67;;;;;;;-0.22;91.64;101373.91;4945178;28;20393;-75
2022/04/02 01:45:22;;;;;;;7.30;2.85;;;;;;;-0.26;92.18;101374.13;4931335;28;20129;-75
2022/04/02 01:47:54;;;;;;;10.57;2.95;;;;;;;-0.17;91.54;101376.31;4960914;28;20058;-76
2022/04/02 01:50:26;;;;;;;5.65;2.80;;;;;;;-0.14;91.59;101381.34;4950341;28;20038;-76
2022/04/02 01:52:54;;;;;;;7.38;3.10;;;;;;;-0.15;91.63;101371.09;4949255;28;20068;-76
2022/04/02 01:55:20;;;;;;;7.30;3.28;;;;;;;-0.16;91.94;101379.72;4933366;28;20069;-75
2022/04/02 01:57:57;;;;;;;4.78;2.92;;;;;;;-0.07;91.20;101379.38;4950461;28;20063;-76
2022/04/02 02:00:31;;;;;;;5.88;2.80;;;;;;;-0.08;91.94;101375.94;4961783;28;20035;-74
2022/04/02 02:02:57;;;;;;;5.38;2.80;;;;;;;-0.04;90.96;101377.50;4955370;28;20043;-75
2022/04/02 02:05:23;;;;;;;6.40;2.70;;;;;;;-0.10;91.46;101370.00;4960516;28;20057;-76
2022/04/02 02:07:49;;;;;;;8.10;3.20;;;;;;;-0.04;91.79;101376.63;4952416;28;20126;-77
2022/04/02 02:10:19;;;;;;;7.20;2.63;;;;;;;-0.07;92.60;101376.78;4967924;28;20560;-76
2022/04/02 02:13:04;;;;;;;7.03;3.13;;;;;;;-0.11;92.28;101367.50;4950170;28;20034;-77
2022/04/02 02:15:34;;;;;;;5.72;2.75;;;;;;;-0.01;91.98;101381.69;4967051;28;20835;-76
2022/04/02 02:18:03;;;;;;;5.80;2.95;;;;;;;-0.16;92.71;101382.31;4957893;28;20027;-75
2022/04/02 02:20:29;;;;;;;8.88;3.15;;;;;;;-0.18;93.16;101376.38;4950722;28;20045;-76
2022/04/02 02:22:55;;;;;;;8.77;3.35;;;;;;;-0.22;93.30;101378.25;4952730;28;20069;-77
2022/04/02 02:25:21;;;;;;;7.43;3.13;;;;;;;-0.23;93.86;101379.13;4963375;28;20539;-78
2022/04/02 02:27:52;;;;;;;6.72;2.80;;;;;;;-0.17;94.12;101370.31;4965627;28;20045;-76
2022/04/02 02:30:21;;;;;;;6.97;3.00;;;;;;;-0.25;94.46;101374.03;4969817;28;20043;-75
2022/04/02 02:32:47;;;;;;;7.28;3.03;;;;;;;-0.21;94.20;101380.75;4953026;28;20134;-77
2022/04/02 02:38:10;;;;;;;10.50;3.40;;;;;;;-0.20;95.54;101376.44;4956982;28;20082;-74
2022/04/02 02:40:44;;;;;;;6.07;3.55;;;;;;;-0.22;95.62;101385.97;4954319;28;20081;-77
2022/04/02 02:43:15;;;;;;;10.93;3.90;;;;;;;-0.20;96.35;101374.69;4939247;28;20043;-76
2022/04/02 02:45:44;;;;;;;7.05;3.47;;;;;;;-0.12;96.66;101383.88;4954749;28;20046;-77
2022/04/02 02:48:11;;;;;;;6.78;3.47;;;;;;;-0.14;96.64;101381.34;4962330;28;20127;-76
2022/04/02 02:50:45;;;;;;;9.70;4.07;;;;;;;-0.14;96.72;101389.06;4953789;28;20551;-76
2022/04/02 02:53:14;;;;;;;7.82;3.60;;;;;;;-0.12;96.92;101391.59;4938804;28;20077;-76
2022/04/02 02:55:39;;;;;;;6.45;3.67;;;;;;;-0.15;97.79;101390.00;4925945;28;1242292;-76
2022/04/02 02:58:08;;;;;;;7.45;3.75;;;;;;;-0.25;98.24;101389.50;4962866;28;20042;-76
2022/04/02 03:00:36;;;;;;;9.57;4.22;;;;;;;-0.17;97.89;101389.22;4953487;28;20046;-77
2022/04/02 03:03:04;;;;;;;6.78;3.63;;;;;;;-0.10;97.92;101393.19;4969300;28;20030;-76
2022/04/02 03:05:32;;;;;;;9.02;4.53;;;;;;;-0.07;98.03;101400.81;4966791;28;20075;-76
2022/04/02 03:08:03;;;;;;;7.25;3.97;;;;;;;-0.15;98.31;101394.28;4937266;28;20093;-76
2022/04/02 03:10:36;;;;;;;10.48;4.20;;;;;;;-0.14;98.62;101393.41;4957133;28;20499;-76
2022/04/02 03:13:02;;;;;;;8.35;3.97;;;;;;;-0.16;98.88;101393.47;4936135;28;20038;-79
2022/04/02 03:15:32;;;;;;;6.28;4.25;;;;;;;-0.08;99.16;101399.13;4967794;28;20075;-77
2022/04/02 03:18:08;;;;;;;8.55;4.20;;;;;;;-0.10;99.15;101393.19;4934582;28;20412;-77
2022/04/02 03:20:41;;;;;;;9.60;4.07;;;;;;;-0.08;99.52;101393.16;4954741;28;20069;-76
2022/04/02 03:23:09;;;;;;;6.25;3.67;;;;;;;0.06;98.20;101400.31;4960661;28;20066;-76
2022/04/02 03:25:34;;;;;;;7.13;4.05;;;;;;;0.05;98.84;101385.75;4953069;28;20063;-77
2022/04/02 03:28:00;;;;;;;9.70;4.35;;;;;;;0.05;99.33;101393.50;4967905;28;20055;-76
2022/04/02 03:30:26;;;;;;;8.48;3.95;;;;;;;0.07;97.92;101400.25;4934096;28;20126;-77
2022/04/02 03:32:56;;;;;;;5.82;4.03;;;;;;;0.09;97.89;101398.44;4950695;28;20042;-76
2022/04/02 03:35:22;;;;;;;6.95;3.75;;;;;;;0.08;98.31;101404.53;4969610;28;20500;-76
2022/04/02 03:37:52;;;;;;;5.75;3.67;;;;;;;0.09;98.26;101402.78;4953759;28;20038;-77
2022/04/02 03:40:22;;;;;;;8.05;3.88;;;;;;;-0.04;98.37;101389.53;4953852;28;20039;-76
2022/04/02 03:42:49;;;;;;;8.45;3.80;;;;;;;-0.03;98.01;101404.13;4969212;28;20035;-77
2022/04/02 03:45:21;;;;;;;9.85;4.20;;;;;;;-0.04;97.64;101405.88;4936321;28;20037;-77
2022/04/02 03:47:50;;;;;;;7.10;4.22;;;;;;;-0.05;97.92;101408.50;4970132;28;20571;-76
2022/04/02 03:50:17;;;;;;;7.63;3.70;;;;;;;-0.18;98.70;101397.00;4952867;28;20045;-77
2022/04/02 03:52:49;;;;;;;;;;;;;;;-0.24;99.86;101404.09;4951134;28;20035;-76
2022/04/02 03:55:20;;;;;;;7.10;3.90;;;;;;;-0.27;99.33;101408.50;4950982;28;19925;-77
2022/04/02 03:57:49;;;;;;;9.07;4.38;;;;;;;-0.37;99.49;101407.22;4954088;28;20480;-76
2022/04/02 04:00:19;;;;;;;9.35;3.72;;;;;;;-0.30;98.77;101414.66;4937251;28;20035;-76
2022/04/02 04:02:54;;;;;;;8.07;3.85;;;;;;;-0.26;98.79;101423.94;4951578;28;20741;-77
2022/04/02 04:05:26;;;;;;;7.90;3.77;;;;;;;-0.36;99.17;101416.59;4947267;28;20137;-76
2022/04/02 04:07:53;;;;;;;6.53;3.85;;;;;;;-0.42;98.87;101415.94;4928760;28;20825;-76
2022/04/02 04:10:20;;;;;;;7.53;3.75;;;;;;;-0.48;99.33;101423.91;4938970;28;20038;-77
2022/04/02 04:12:48;;;;;;;9.82;4.10;;;;;;;-0.42;99.82;101433.16;4981318;28;20377;-77
2022/04/02 04:15:16;;;;;;;8.25;3.90;;;;;;;-0.51;100.00;101425.75;4948837;28;20436;-77
2022/04/02 04:17:42;;;;;;;8.73;4.55;;;;;;;-0.56;100.00;101425.97;4967368;28;20412;-77
2022/04/02 04:20:10;;;;;;;9.35;4.20;;;;;;;-0.58;100.00;101427.75;4958125;28;20037;-77
2022/04/02 04:22:37;;;;;;;7.13;3.75;;;;;;;-0.61;100.00;101430.44;4963574;28;20206;-77
2022/04/02 04:25:09;;;;;;;10.65;3.83;;;;;;;-0.69;100.00;101429.91;4953187;28;20035;-76
2022/04/02 04:27:38;;;;;;;7.15;3.38;;;;;;;-0.67;100.00;101438.41;4939498;28;20035;-76
2022/04/02 04:30:04;;;;;;;7.05;3.85;;;;;;;-0.68;100.00;101441.88;4966200;28;20034;-77
2022/04/02 04:32:30;;;;;;;8.38;4.07;;;;;;;-0.70;100.00;101447.06;4954763;28;20035;-76
2022/04/02 04:34:56;;;;;;;5.13;3.50;;;;;;;-0.77;100.00;101453.38;4937386;28;20409;-76
2022/04/02 04:37:21;;;;;;;8.52;3.55;;;;;;;-0.76;100.00;101451.63;4935264;28;20162;-77
2022/04/02 04:39:47;;;;;;;9.57;4.13;;;;;;;-0.80;100.00;101456.03;4969212;28;20038;-77
2022/04/02 04:42:17;;;;;;;6.18;3.60;;;;;;;-0.91;100.00;101448.69;4948652;28;20092;-77
2022/04/02 04:44:43;;;;;;;6.05;3.65;;;;;;;-0.78;100.00;101459.41;4941129;28;20110;-77
2022/04/02 04:47:11;;;;;;;7.65;3.55;;;;;;;-0.86;100.00;101461.44;4951084;28;21445;-76
2022/04/02 04:49:44;;;;;;;7.10;3.65;;;;;;;-0.90;100.00;101458.13;4964935;28;20038;-77
2022/04/02 04:52:10;;;;;;;6.72;4.07;;;;;;;-0.95;100.00;101466.91;4936833;28;20436;-76
2022/04/02 04:54:36;;;;;;;7.88;3.97;;;;;;;-0.94;100.00;101472.00;4950170;28;20058;-76
2022/04/02 04:57:10;;;;;;;8.75;3.78;;;;;;;-1.08;100.00;101446.72;4938625;28;20045;-77
2022/04/02 04:59:37;;;;;;;9.07;4.00;;;;;;;-1.03;100.00;101464.59;4952523;28;20043;-77
2022/04/02 05:02:04;;;;;;;11.02;3.92;;;;;;;-1.01;100.00;101479.09;4936683;28;20122;-76
2022/04/02 05:04:31;;;;;;;10.27;3.80;;;;;;;-1.13;100.00;101469.25;4966483;28;20051;-76
2022/04/02 05:06:58;;;;;;;10.15;3.85;;;;;;;-1.09;100.00;101473.38;4954432;28;20046;-76
2022/04/02 05:09:25;;;;;;;9.32;3.90;;;;;;;-1.01;100.00;101488.56;4966208;28;20030;-77
2022/04/02 05:11:53;;;;;;;7.53;3.38;;;;;;;-1.09;100.00;101477.66;4947580;28;20042;-78
2022/04/02 05:14:20;;;;;;;6.68;3.55;;;;;;;-1.12;100.00;101472.66;4934504;28;20057;-77
2022/04/02 05:16:52;;;;;;;6.03;3.42;;;;;;;-1.08;100.00;101493.06;4949077;28;20382;-77
2022/04/02 05:19:18;;;;;;;7.30;3.40;;;;;;;-1.04;100.00;101486.91;4942325;28;20035;-76
2022/04/02 05:21:44;;;;;;;8.30;3.75;;;;;;;-1.00;100.00;101492.81;4963274;28;20066;-76
2022/04/02 05:24:13;;;;;;;5.80;3.40;;;;;;;-1.18;100.00;101481.44;4950813;28;20034;-76
2022/04/02 05:26:42;;;;;;;6.63;3.40;;;;;;;-1.14;100.00;101495.88;4966186;28;20488;-77
2022/04/02 05:29:12;;;;;;;7.00;3.25;;;;;;;-1.07;100.00;101502.50;4953434;28;20045;-77
2022/04/02 05:31:40;;;;;;;6.25;3.17;;;;;;;-1.06;99.65;101493.03;4967203;28;20038;-76
2022/04/02 05:34:08;;;;;;;5.75;3.13;;;;;;;-1.12;100.00;101493.25;4950881;28;20540;-77
2022/04/02 05:36:35;;;;;;;6.88;3.35;;;;;;;-1.00;99.17;101505.69;4963677;28;20083;-77
2022/04/02 05:39:01;;;;;;;5.43;3.25;;;;;;;-0.94;98.33;101509.78;4967576;28;20061;-76
2022/04/02 05:41:29;;;;;;;7.68;3.17;;;;;;;-1.03;98.73;101514.38;4947477;28;20256;-77
2022/04/02 05:43:55;;;;;;;8.75;3.20;;;;;;;-0.93;97.46;101517.44;4934900;28;20035;-77
2022/04/02 05:46:22;;;;;;;6.45;3.33;;;;;;;-0.85;97.40;101518.03;4964674;28;20389;-77
2022/04/02 05:48:48;;;;;;;6.90;3.20;;;;;;;-0.87;97.66;101509.50;4964002;28;20077;-76
2022/04/02 05:51:14;;;;;;;8.73;3.40;;;;;;;-0.83;97.58;101518.81;4930668;28;20096;-76
2022/04/02 05:53:40;;;;;;;9.65;3.10;;;;;;;-0.85;97.79;101524.91;4977273;28;20121;-78
2022/04/02 05:56:06;;;;;;;8.98;2.90;;;;;;;-0.72;96.24;101539.03;4953923;28;20117;-78
2022/04/02 05:58:32;;;;;;;7.13;2.95;;;;;;;-0.71;96.87;101533.00;4951674;28;20043;-76
2022/04/02 06:00:57;;;;;;;7.93;3.20;;;;;;;-0.70;96.06;101520.94;4959383;28;20047;-77
2022/04/02 06:03:23;;;;;;;4.88;3.08;;;;;;;-0.62;94.93;101537.84;4944978;28;20050;-76
2022/04/02 06:05:50;;;;;;;6.10;2.97;;;;;;;-0.55;94.18;101535.03;4952302;28;20039;-77
2022/04/02 06:08:16;;;;;;;6.75;3.08;;;;;;;-0.47;93.22;101535.56;4949472;28;20619;-76
2022/04/02 06:10:45;;;;;;;5.40;2.70;;;;;;;-0.24;92.64;101557.94;4967352;28;20047;-77
2022/04/02 06:13:11;;;;;;;4.60;2.65;;;;;;;-0.23;91.24;101563.06;4962412;28;20750;-78
2022/04/02 06:15:37;;;;;;;3.97;2.60;;;;;;;-0.15;91.39;101561.91;4929331;28;20066;-77
2022/04/02 06:18:03;;;;;;;4.68;2.72;;;;;;;-0.04;90.44;101555.47;4964572;28;20038;-75
2022/04/02 06:20:29;;;;;;;6.07;2.60;;;;;;;0.02;88.87;101561.28;4962101;28;20047;-77
2022/04/02 06:22:56;;;;;;;5.60;3.13;;;;;;;0.07;88.78;101562.78;4952861;28;20041;-77
2022/04/02 06:25:22;;;;;;;3.80;2.53;;;;;;;0.10;89.14;101560.09;4933989;28;20070;-78
2022/04/02 06:27:48;;;;;;;3.40;2.40;;;;;;;0.26;86.33;101574.97;4981049;28;20061;-77
2022/04/02 06:30:18;;;;;;;4.80;2.33;;;;;;;0.27;87.87;101569.75;4932719;28;20440;-77
2022/04/02 06:32:43;;;;;;;6.32;2.63;;;;;;;0.42;88.04;101576.06;4933570;28;20034;-76
2022/04/02 06:35:11;;;;;;;9.13;2.40;;;;;;;0.52;86.65;101582.53;4942193;28;20045;-77
2022/04/02 06:37:40;;;;;;;6.53;2.42;;;;;;;0.61;85.57;101589.06;4965877;28;20081;-78
2022/04/02 06:40:09;;;;;;;4.50;2.58;;;;;;;0.72;84.78;101586.91;4937008;28;20055;-78
2022/04/02 06:42:36;;;;;;;4.90;2.30;;;;;;;0.87;84.68;101592.34;4979449;28;20086;-77
2022/04/02 06:45:07;;;;;;;6.82;2.45;;;;;;;0.83;84.72;101573.56;4964346;28;20095;-78
2022/04/02 06:47:33;;;;;;;3.80;2.00;;;;;;;0.93;81.65;101594.69;4967948;28;20114;-77
2022/04/02 06:50:04;;;;;;;5.78;2.30;;;;;;;1.04;82.06;101589.91;4954067;28;20178;-77
2022/04/02 06:52:30;;;;;;;5.88;2.40;;;;;;;1.12;80.92;101592.16;4943312;28;20042;-77
2022/04/02 06:54:56;;;;;;;4.95;2.20;;;;;;;1.29;81.11;101597.44;4945726;28;20042;-77
2022/04/02 06:57:23;;;;;;;6.03;2.30;;;;;;;1.42;79.79;101600.34;4942760;28;20043;-78
2022/04/02 06:59:48;;;;;;;5.25;2.10;;;;;;;1.43;79.24;101596.88;4960072;28;20030;-76
2022/04/02 07:02:21;;;;;;;7.75;1.70;;;;;;;1.45;77.86;101583.84;4954708;28;20046;-77
2022/04/02 07:04:48;;;;;;;3.90;2.03;;;;;;;1.66;78.16;101605.38;4935891;28;20038;-77
2022/04/02 07:07:14;;;;;;;4.03;1.90;;;;;;;1.73;76.19;101604.16;4958100;28;20041;-76
2022/04/02 07:09:40;;;;;;;4.63;2.00;;;;;;;1.79;77.04;101600.47;4937770;28;20038;-76
2022/04/02 07:12:07;;;;;;;4.28;1.77;;;;;;;1.88;76.56;101602.63;4937725;28;20039;-78
2022/04/02 07:14:33;;;;;;;2.97;1.90;;;;;;;1.91;75.34;101603.34;4984794;28;20064;-78
2022/04/02 07:16:59;;;;;;;4.05;1.70;;;;;;;1.89;75.27;101607.75;4941922;28;20484;-77
2022/04/02 07:19:25;;;;;;;2.83;1.40;;;;;;;1.92;74.90;101609.34;4969039;28;20046;-77
2022/04/02 07:21:53;;;;;;;4.20;1.50;;;;;;;2.00;75.18;101604.69;4973243;28;20030;-76
2022/04/02 07:24:20;;;;;;;4.25;1.70;;;;;;;2.06;74.09;101606.97;4957854;28;20030;-77
2022/04/02 07:26:48;;;;;;;3.17;1.42;;;;;;;2.04;72.94;101611.38;4945721;28;20038;-77
2022/04/02 07:29:15;;;;;;;3.13;1.35;;;;;;;1.90;73.36;101616.34;4952230;28;20066;-76
2022/04/02 07:31:44;;;;;;;3.63;1.58;;;;;;;1.86;73.48;101620.81;4958625;28;20464;-78
2022/04/02 07:34:10;;;;;;;7.70;1.83;;;;;;;1.91;72.64;101625.78;4980903;28;20062;-76
2022/04/02 07:36:50;;;;;;;2.47;1.30;;;;;;;1.99;72.32;101625.44;4961858;28;20042;-76
2022/04/02 07:39:32;;;;;;;4.25;1.50;;;;;;;1.98;72.71;101627.19;4971931;28;20103;-76
2022/04/02 07:42:04;;;;;;;5.07;1.30;;;;;;;2.13;72.70;101636.03;4959631;28;20066;-78
2022/04/02 07:44:48;;;;;;;3.37;1.50;;;;;;;2.14;71.48;101638.50;4983494;28;20089;-78
2022/04/02 07:47:15;;;;;;;4.93;2.05;;;;;;;2.23;71.69;101633.84;4971212;28;20038;-77
2022/04/02 07:49:45;;;;;;;2.90;1.42;;;;;;;2.18;71.70;101628.03;4961280;28;20417;-77
2022/04/02 07:52:12;;;;;;;3.30;1.50;;;;;;;2.17;70.47;101623.75;4969645;28;20042;-77
2022/04/02 07:54:42;;;;;;;2.50;1.13;;;;;;;2.28;71.77;101630.13;4986348;28;20113;-77
2022/04/02 07:57:09;;;;;;;2.55;1.17;;;;;;;2.36;70.62;101628.94;4956685;28;20775;-77
2022/04/02 07:59:44;;;;;;;2.55;1.58;;;;;;;2.53;70.50;101636.75;4960891;28;20046;-77
2022/04/02 08:05:00;;;;;;;1.73;1.27;;;;;;;2.57;68.73;101650.41;4962150;28;20058;-76
2022/04/02 08:07:29;;;;;;;2.00;1.30;;;;;;;2.65;68.90;101627.56;4954488;28;20058;-77
2022/04/02 08:09:56;;;;;;;3.50;1.38;;;;;;;2.80;67.79;101644.94;4947380;28;20038;-77
2022/04/02 08:12:23;;;;;;;5.50;1.80;;;;;;;2.77;69.90;101639.94;4952342;28;21004;-77
2022/04/02 08:14:50;;;;;;;3.13;1.40;;;;;;;3.06;67.93;101648.84;4962051;28;20030;-78
2022/04/02 08:17:16;;;;;;;2.92;1.40;;;;;;;2.96;66.39;101650.25;4948000;28;20109;-77
2022/04/02 08:19:41;;;;;;;5.05;1.60;;;;;;;2.95;65.17;101651.13;4952743;28;20480;-77
2022/04/02 08:22:07;;;;;;;3.58;1.40;;;;;;;2.74;66.01;101637.47;4946692;28;20035;-76
2022/04/02 08:24:32;;;;;;;2.22;1.33;;;;;;;2.82;64.86;101652.66;4969508;28;20035;-77
2022/04/02 08:27:03;;;;;;;3.15;1.55;;;;;;;3.02;65.42;101655.09;4952695;28;20046;-78
2022/04/02 08:29:44;;;;;;;2.40;1.48;;;;;;;3.10;64.85;101658.16;4948379;28;20114;-78
2022/04/02 08:32:19;;;;;;;2.83;1.20;;;;;;;3.12;64.30;101663.28;4952382;28;20047;-78
2022/04/02 08:34:56;;;;;;;4.30;1.40;;;;;;;2.99;63.88;101663.03;4950900;28;20492;-79
2022/04/02 08:37:29;;;;;;;2.47;1.25;;;;;;;3.16;62.65;101669.16;4956052;28;20041;-80
2022/04/02 08:40:19;;;;;;;3.97;1.30;;;;;;;3.34;62.99;101672.59;4966704;28;20033;-77
2022/04/02 08:43:12;;;;;;;3.75;1.20;;;;;;;3.48;57.89;101665.78;4951189;28;20128;-80
2022/04/02 08:46:07;;;;;;;2.03;1.17;;;;;;;3.86;56.91;101662.97;4941185;28;20649;-77
2022/04/02 08:48:36;;;;;;;2.55;1.05;;;;;;;3.89;57.03;101667.97;4935969;28;20063;-78
2022/04/02 08:51:22;;;;;;;3.08;1.38;;;;;;;3.62;55.60;101680.66;4942741;28;20030;-78
2022/04/02 08:54:05;;;;;;;2.38;1.13;;;;;;;3.50;57.07;101673.47;4955960;28;20042;-78
2022/04/02 08:56:37;;;;;;;1.45;1.02;;;;;;;3.61;55.74;101678.94;4985710;28;20043;-78
2022/04/02 08:59:04;;;;;;;;;;;;;;;3.72;55.64;101677.59;4968680;28;20061;-78
2022/04/02 09:02:02;;;;;;;3.13;1.30;;;;;;;4.05;56.31;101687.94;4967295;28;20319;-79
2022/04/02 09:04:54;;;;;;;1.42;1.10;;;;;;;4.08;54.75;101688.63;4963974;28;20055;-78
2022/04/02 09:07:57;;;;;;;3.72;1.33;;;;;;;3.74;53.56;101681.75;4959239;28;20488;-78
2022/04/02 09:11:00;;;;;;;2.13;1.15;;;;;;;3.82;53.82;101687.38;4949679;28;21142;-76
2022/04/02 09:13:45;;;;;;;;;;;;;;;3.73;54.18;101687.03;4971134;28;20031;-75
2022/04/02 09:16:21;;;;;;;4.53;1.17;;;;;;;3.74;51.83;101689.53;4951675;28;19918;-78
2022/04/02 09:19:32;;;;;;;2.33;1.27;;;;;;;3.31;53.33;101691.72;4950306;28;20066;-78
2022/04/02 09:22:35;;;;;;;2.20;1.13;;;;;;;3.56;54.72;101691.34;4929587;28;20125;-79
2022/04/02 09:25:23;;;;;;;3.83;1.42;;;;;;;3.70;53.87;101690.63;4936216;29;20035;-78
2022/04/02 09:28:15;;;;;;;2.08;1.20;;;;;;;3.87;52.55;101694.94;4965951;28;20042;-76
2022/04/02 09:31:12;;;;;;;2.58;1.20;;;;;;;3.65;53.51;101690.00;4954882;28;20038;-76
2022/04/02 09:33:41;;;;;;;1.42;1.10;;;;;;;3.62;53.51;101687.59;4967227;28;20039;-77
2022/04/02 09:36:22;;;;;;;3.33;1.08;;;;;;;3.55;51.19;101707.81;4950517;28;20031;-77
2022/04/02 09:39:16;;;;;;;2.58;1.42;;;;;;;3.41;53.29;101692.09;4965766;28;20031;-77
2022/04/02 09:41:57;;;;;;;1.98;1.27;;;;;;;3.50;53.01;101694.22;4946583;28;20062;-77
2022/04/02 09:44:35;;;;;;;2.35;1.30;;;;;;;3.61;53.56;101694.53;4952608;28;20047;-77
2022/04/02 09:47:31;;;;;;;2.95;1.27;;;;;;;3.53;51.67;101703.63;4947916;28;20042;-77
2022/04/02 09:50:09;;;;;;;3.25;1.42;;;;;;;3.65;50.00;101693.44;4950476;28;20396;-77
2022/04/02 09:52:43;;;;;;;3.58;1.25;;;;;;;3.75;51.07;101699.03;4963983;28;20055;-78
2022/04/02 09:55:20;;;;;;;3.60;1.27;;;;;;;4.13;50.55;101696.19;4959821;28;20031;-77
2022/04/02 09:57:45;;;;;;;3.22;1.20;;;;;;;4.56;49.51;101709.47;4977827;28;20228;-76
2022/04/02 10:00:13;;;;;;;2.05;1.15;;;;;;;4.03;48.38;101695.84;4962898;28;20113;-76
2022/04/02 10:02:55;;;;;;;2.08;1.27;;;;;;;4.63;48.38;101695.22;4948066;28;20160;-79
2022/04/02 10:05:31;;;;;;;1.63;1.25;;;;;;;4.65;47.33;101697.69;4964959;28;20053;-77
2022/04/02 10:08:04;;;;;;;2.00;1.05;;;;;;;4.79;46.05;101694.34;4962680;28;20403;-77
2022/04/02 10:10:30;;;;;;;2.25;1.38;;;;;;;5.05;46.03;101701.53;4959320;28;20058;-78
2022/04/02 10:12:57;;;;;;;2.42;0.95;;;;;;;4.70;44.55;101700.88;4947323;28;20035;-76
2022/04/02 10:15:24;;;;;;;2.42;1.00;;;;;;;4.18;45.87;101704.56;4947208;28;20058;-77
2022/04/02 10:17:52;;;;;;;2.47;0.90;;;;;;;3.85;44.70;101692.44;4965596;28;20512;-76
2022/04/02 10:20:28;;;;;;;6.25;0.90;;;;;;;4.51;44.69;101711.47;4932607;28;20118;-75
2022/04/02 10:23:37;;;;;;;2.00;0.95;;;;;;;4.47;45.01;101699.56;4967085;28;20050;-77
2022/04/02 10:26:08;;;;;;;2.38;1.02;;;;;;;4.79;44.50;101697.78;4945449;28;20043;-77
2022/04/02 10:28:55;;;;;;;1.67;1.00;;;;;;;4.96;43.83;101693.41;4970396;28;20425;-76
2022/04/02 10:31:27;;;;;;;1.70;0.90;;;;;;;4.81;44.83;101693.34;4951282;28;20503;-77
2022/04/02 10:33:59;;;;;;;2.33;1.08;;;;;;;5.20;46.26;101688.56;4980026;28;20150;-80
2022/04/02 10:36:25;;;;;;;2.00;1.17;;;;;;;5.02;44.32;101680.88;4936725;28;20113;-75
2022/04/02 10:38:52;;;;;;;3.70;1.20;;;;;;;5.26;43.57;101683.84;4968625;28;20034;-79
2022/04/02 10:41:18;;;;;;;4.97;1.13;;;;;;;5.48;43.10;101682.56;4954960;28;20042;-78
2022/04/02 10:43:51;;;;;;;5.32;1.10;;;;;;;5.43;43.23;101690.66;4965762;28;20047;-77
2022/04/02 10:46:21;;;;;;;1.65;1.10;;;;;;;5.27;43.44;101684.66;4933600;28;20035;-80
2022/04/02 10:48:58;;;;;;;1.88;1.10;;;;;;;5.09;44.18;101677.94;4962625;28;20047;-77
2022/04/02 10:51:25;;;;;;;2.88;1.10;;;;;;;5.06;45.28;101679.78;4954678;28;20455;-77
2022/04/02 10:54:08;;;;;;;1.73;0.93;;;;;;;5.14;44.87;101681.97;4964674;28;20054;-79
2022/04/02 10:56:41;;;;;;;1.55;1.00;;;;;;;4.91;44.59;101692.81;4965340;28;20035;-79
2022/04/02 10:59:08;;;;;;;1.08;0.82;;;;;;;4.34;44.15;101691.59;4940000;28;20039;-79
2022/04/02 11:01:49;;;;;;;3.40;1.20;;;;;;;4.12;45.28;101681.50;4968993;28;20135;-78
2022/04/02 11:04:31;;;;;;;2.70;1.20;;;;;;;4.09;44.49;101692.06;4936274;28;20069;-77
2022/04/02 11:06:58;;;;;;;3.10;1.15;;;;;;;4.09;45.76;101689.47;4971176;28;20047;-79
2022/04/02 11:09:31;;;;;;;2.25;1.10;;;;;;;4.72;47.28;101693.84;4964674;28;20046;-80
2022/04/02 11:12:08;;;;;;;3.50;1.23;;;;;;;5.25;45.40;101686.53;4951561;28;20094;-77
2022/04/02 11:14:41;;;;;;;3.22;0.98;;;;;;;5.65;43.87;101682.44;4965445;28;20027;-79
2022/04/02 11:17:07;;;;;;;2.72;1.10;;;;;;;5.06;44.23;101690.19;4938673;28;20629;-77
2022/04/02 11:22:25;;;;;;;1.50;1.10;;;;;;;5.02;46.54;101691.28;4965100;28;20027;-78
2022/04/02 11:25:10;;;;;;;2.95;1.10;;;;;;;5.18;43.60;101687.78;4981518;28;20062;-79
2022/04/02 11:27:38;;;;;;;3.05;1.15;;;;;;;6.10;43.71;101684.13;4946782;28;20271;-78
2022/04/02 11:30:07;;;;;;;3.05;1.05;;;;;;;5.96;42.03;101685.81;4951077;28;20027;-75
2022/04/02 11:32:42;;;;;;;2.25;1.15;;;;;;;6.25;42.18;101688.38;4968378;28;20035;-78
2022/04/02 11:35:29;;;;;;;1.15;0.95;;;;;;;6.08;40.94;101694.63;4963387;28;20039;-77
2022/04/02 11:38:10;;;;;;;1.50;1.10;;;;;;;6.55;41.36;101682.19;4939128;28;20046;-78
2022/04/02 11:40:45;;;;;;;3.72;1.20;;;;;;;6.16;41.68;101688.94;4979823;28;20050;-78
2022/04/02 11:43:13;;;;;;;2.65;1.02;;;;;;;5.09;44.03;101691.78;4952724;28;20034;-80
2022/04/02 11:45:40;;;;;;;4.18;1.15;;;;;;;5.09;45.10;101683.97;4954148;28;20047;-77
2022/04/02 11:48:09;;;;;;;2.42;1.30;;;;;;;5.31;44.93;101691.38;4967485;28;20042;-78
2022/04/02 11:50:39;;;;;;;1.58;1.10;;;;;;;5.89;44.57;101688.84;4970329;28;20053;-79
2022/04/02 11:53:05;;;;;;;3.28;1.20;;;;;;;6.42;44.33;101696.00;4934495;28;20071;-79
2022/04/02 11:55:35;;;;;;;2.58;1.30;;;;;;;6.56;43.94;101686.47;4958219;28;20047;-80